Time;durP1;ratioP1;P1;durP2;ratioP2;P2;SDS_P1;SDS_P2;PMS_P1;PMS_P2;Temp;Humidity;BMP_temperature;BMP_pressure;BME280_temperature;BME280_humidity;BME280_pressure;Samples;Min_cycle;Max_cycle;Signal;HPM_P1;HPM_P2
2023/04/02 00:01:48;;;;;;;49.05;25.10;;;;;;;;;;6250135;28;20041;-61
2023/04/02 00:05:15;;;;;;;42.65;21.48;;;;;;;;;;6249486;28;20069;-60
2023/04/02 00:08:23;;;;;;;48.63;22.40;;;;;;;;;;6246121;28;20145;-61
2023/04/02 00:11:34;;;;;;;47.22;20.55;;;;;;;;;;6247131;28;20110;-60
2023/04/02 00:14:35;;;;;;;47.08;22.70;;;;;;;;;;6247035;28;20511;-60
2023/04/02 00:17:35;;;;;;;49.87;22.87;;;;;;;;;;6247305;28;20492;-60
2023/04/02 00:20:40;;;;;;;46.00;22.35;;;;;;;;;;6248736;28;20044;-60
2023/04/02 00:23:43;;;;;;;52.08;25.20;;;;;;;;;;6247587;28;20138;-60
2023/04/02 00:26:46;;;;;;;52.08;25.95;;;;;;;;;;6247540;28;20049;-62
2023/04/02 00:29:49;;;;;;;47.83;22.83;;;;;;;;;;6250093;28;20106;-62
2023/04/02 00:32:50;;;;;;;49.10;21.80;;;;;;;;;;6249532;28;20084;-62
2023/04/02 00:35:52;;;;;;;52.67;23.15;;;;;;;;;;6248106;28;20574;-62
2023/04/02 00:38:56;;;;;;;51.80;23.77;;;;;;;;;;6247843;28;20052;-63
2023/04/02 00:42:04;;;;;;;50.20;23.58;;;;;;;;;;6248358;28;20306;-61
2023/04/02 00:45:17;;;;;;;54.45;25.25;;;;;;;;;;6246116;28;20416;-61
2023/04/02 00:48:27;;;;;;;55.08;25.48;;;;;;;;;;6243964;28;20052;-61
2023/04/02 00:52:02;;;;;;;51.28;23.85;;;;;;;;;;6245210;28;20056;-61
2023/04/02 00:55:13;;;;;;;50.03;22.73;;;;;;;;;;6208328;28;20057;-61
2023/04/02 00:58:35;;;;;;;50.30;24.50;;;;;;;;;;6247326;28;20045;-61
2023/04/02 01:01:41;;;;;;;53.30;24.40;;;;;;;;;;6251507;28;20055;-63
2023/04/02 01:04:50;;;;;;;57.25;28.38;;;;;;;;;;6245922;28;20041;-61
2023/04/02 01:08:16;;;;;;;56.38;25.33;;;;;;;;;;6252310;28;20045;-61
2023/04/02 01:11:28;;;;;;;49.60;22.25;;;;;;;;;;6245863;28;20041;-63
2023/04/02 01:14:47;;;;;;;52.85;21.90;;;;;;;;;;6246242;28;20051;-61
2023/04/02 01:18:00;;;;;;;52.72;23.00;;;;;;;;;;6248107;28;20183;-61
2023/04/02 01:21:12;;;;;;;48.75;22.92;;;;;;;;;;6248671;28;20485;-62
2023/04/02 01:24:13;;;;;;;54.65;24.08;;;;;;;;;;6258171;28;20172;-62
2023/04/02 01:27:28;;;;;;;50.63;23.90;;;;;;;;;;6242351;28;20075;-62
2023/04/02 01:30:28;;;;;;;58.15;25.63;;;;;;;;;;6247133;28;20045;-62
2023/04/02 01:33:33;;;;;;;52.55;25.75;;;;;;;;;;6247139;28;20056;-62
2023/04/02 01:36:44;;;;;;;54.10;24.10;;;;;;;;;;6245278;28;20260;-63
2023/04/02 01:39:45;;;;;;;53.00;24.23;;;;;;;;;;6246816;28;20055;-59
2023/04/02 01:43:12;;;;;;;56.25;24.60;;;;;;;;;;6243198;28;20053;-63
2023/04/02 01:46:24;;;;;;;51.42;22.10;;;;;;;;;;6250013;28;20480;-61
2023/04/02 01:49:26;;;;;;;51.87;24.03;;;;;;;;;;6247408;28;20045;-62
2023/04/02 01:52:39;;;;;;;54.17;23.95;;;;;;;;;;6246316;28;20295;-62
2023/04/02 01:55:48;;;;;;;49.38;23.23;;;;;;;;;;6248385;28;20047;-62
2023/04/02 01:58:49;;;;;;;48.95;20.73;;;;;;;;;;6248626;28;20404;-62
2023/04/02 02:02:11;;;;;;;48.22;20.98;;;;;;;;;;6245601;28;20041;-62
2023/04/02 02:05:14;;;;;;;49.72;21.30;;;;;;;;;;6245230;28;20460;-62
2023/04/02 02:08:37;;;;;;;47.95;20.00;;;;;;;;;;6262718;28;20053;-61
2023/04/02 02:11:38;;;;;;;51.90;21.85;;;;;;;;;;6252564;28;20049;-62
2023/04/02 02:14:44;;;;;;;45.75;19.55;;;;;;;;;;6244897;28;20049;-62
2023/04/02 02:17:46;;;;;;;49.55;20.63;;;;;;;;;;6246538;28;20459;-62
2023/04/02 02:20:46;;;;;;;52.55;21.30;;;;;;;;;;6249203;28;20132;-61
2023/04/02 02:23:47;;;;;;;48.35;20.50;;;;;;;;;;6244228;28;20569;-62
2023/04/02 02:26:55;;;;;;;52.95;21.33;;;;;;;;;;6246367;28;20119;-62
2023/04/02 02:30:06;;;;;;;50.97;20.60;;;;;;;;;;6240025;28;20048;-62
2023/04/02 02:33:33;;;;;;;49.60;22.75;;;;;;;;;;6240483;28;20489;-61
2023/04/02 02:36:55;;;;;;;47.75;20.73;;;;;;;;;;6244900;28;20522;-62
2023/04/02 02:39:59;;;;;;;46.17;18.23;;;;;;;;;;6245675;28;20049;-61
2023/04/02 02:43:03;;;;;;;42.70;17.60;;;;;;;;;;6247668;28;20049;-63
2023/04/02 02:46:04;;;;;;;44.47;17.63;;;;;;;;;;6245016;28;20053;-61
2023/04/02 02:49:06;;;;;;;42.75;17.85;;;;;;;;;;6247932;28;20037;-62
2023/04/02 02:52:16;;;;;;;44.13;19.10;;;;;;;;;;6268157;28;20052;-62
2023/04/02 02:55:23;;;;;;;36.85;16.33;;;;;;;;;;6257372;28;20497;-62
2023/04/02 02:58:27;;;;;;;35.95;15.23;;;;;;;;;;6246664;28;20087;-62
2023/04/02 03:01:47;;;;;;;37.20;16.00;;;;;;;;;;6248821;28;20064;-62
2023/04/02 03:04:51;;;;;;;34.90;15.60;;;;;;;;;;6260394;28;20083;-62
2023/04/02 03:07:55;;;;;;;37.80;16.52;;;;;;;;;;6266077;28;20482;-62
2023/04/02 03:11:03;;;;;;;37.30;16.35;;;;;;;;;;6249530;28;20126;-62
2023/04/02 03:14:14;;;;;;;36.15;16.80;;;;;;;;;;6250153;28;20224;-61
2023/04/02 03:17:22;;;;;;;37.63;16.05;;;;;;;;;;6247269;28;20119;-62
2023/04/02 03:20:33;;;;;;;44.85;19.52;;;;;;;;;;6243982;28;20045;-62
2023/04/02 03:23:38;;;;;;;45.25;18.85;;;;;;;;;;6245930;28;20600;-62
2023/04/02 03:26:45;;;;;;;42.03;18.92;;;;;;;;;;6246345;28;20067;-61
2023/04/02 03:30:00;;;;;;;39.47;18.45;;;;;;;;;;6245886;28;20623;-61
2023/04/02 03:33:24;;;;;;;42.28;18.55;;;;;;;;;;6249863;28;20048;-62
2023/04/02 03:36:33;;;;;;;39.63;18.17;;;;;;;;;;6248379;28;20041;-61
2023/04/02 03:40:10;;;;;;;34.17;16.33;;;;;;;;;;6247928;28;20488;-61
2023/04/02 03:43:21;;;;;;;38.90;17.35;;;;;;;;;;6230476;28;20688;-62
2023/04/02 03:46:28;;;;;;;36.72;17.23;;;;;;;;;;6243924;28;20053;-61
2023/04/02 03:49:45;;;;;;;40.13;16.80;;;;;;;;;;6248373;28;20574;-62
2023/04/02 03:52:47;;;;;;;40.22;16.25;;;;;;;;;;6248032;28;20523;-62
2023/04/02 03:55:48;;;;;;;35.45;16.05;;;;;;;;;;6247435;28;20045;-62
2023/04/02 03:59:00;;;;;;;37.40;17.60;;;;;;;;;;6247107;28;20059;-61
2023/04/02 04:02:37;;;;;;;36.15;16.60;;;;;;;;;;6245971;28;20053;-62
2023/04/02 04:05:50;;;;;;;42.47;18.02;;;;;;;;;;6232467;28;20077;-62
2023/04/02 04:08:57;;;;;;;40.83;19.08;;;;;;;;;;6256664;28;20052;-62
2023/04/02 04:12:19;;;;;;;43.50;19.83;;;;;;;;;;6263565;28;20049;-62
2023/04/02 04:15:30;;;;;;;39.08;18.27;;;;;;;;;;6256931;28;20450;-61
2023/04/02 04:18:51;;;;;;;39.65;17.27;;;;;;;;;;6259652;28;20496;-62
2023/04/02 04:21:55;;;;;;;43.83;18.47;;;;;;;;;;6258616;28;20052;-62
2023/04/02 04:24:59;;;;;;;64.53;30.88;;;;;;;;;;6259606;28;20041;-61
2023/04/02 04:28:06;;;;;;;73.70;32.78;;;;;;;;;;6268143;28;20052;-62
2023/04/02 04:31:20;;;;;;;79.35;34.03;;;;;;;;;;6249765;28;20044;-62
2023/04/02 04:34:28;;;;;;;85.10;37.50;;;;;;;;;;6245584;28;20389;-62
2023/04/02 04:37:35;;;;;;;74.75;35.70;;;;;;;;;;6245007;28;20061;-61
2023/04/02 04:40:40;;;;;;;74.20;33.72;;;;;;;;;;6248189;28;20056;-63
2023/04/02 04:43:48;;;;;;;50.55;24.27;;;;;;;;;;6246812;28;20045;-62
2023/04/02 04:47:02;;;;;;;52.90;22.80;;;;;;;;;;6242453;28;20060;-62
2023/04/02 04:50:10;;;;;;;52.25;24.08;;;;;;;;;;6247850;28;20500;-61
2023/04/02 04:53:16;;;;;;;47.90;21.27;;;;;;;;;;6248483;28;20510;-61
2023/04/02 04:56:22;;;;;;;48.83;21.67;;;;;;;;;;6246338;28;20045;-62
2023/04/02 04:59:28;;;;;;;51.08;22.38;;;;;;;;;;6245750;28;20041;-62
2023/04/02 05:02:37;;;;;;;50.13;23.52;;;;;;;;;;6246033;28;20492;-62
2023/04/02 05:05:39;;;;;;;46.08;22.20;;;;;;;;;;6247428;28;20408;-62
2023/04/02 05:08:46;;;;;;;43.53;20.25;;;;;;;;;;6245682;28;20095;-62
2023/04/02 05:12:02;;;;;;;42.72;19.23;;;;;;;;;;6246452;28;20654;-62
2023/04/02 05:15:36;;;;;;;46.83;20.40;;;;;;;;;;6245262;28;20063;-61
2023/04/02 05:18:42;;;;;;;49.42;20.77;;;;;;;;;;6245501;28;20048;-62
2023/04/02 05:21:47;;;;;;;46.45;20.13;;;;;;;;;;6243093;28;20101;-61
2023/04/02 05:25:22;;;;;;;43.42;18.77;;;;;;;;;;6253201;28;20049;-62
2023/04/02 05:28:47;;;;;;;42.08;18.27;;;;;;;;;;6246262;28;20053;-62
2023/04/02 05:32:12;;;;;;;42.83;18.33;;;;;;;;;;6248326;28;20401;-62
2023/04/02 05:35:16;;;;;;;46.35;19.42;;;;;;;;;;6244751;28;20451;-62
2023/04/02 05:38:22;;;;;;;47.30;19.33;;;;;;;;;;6246583;28;20492;-62
2023/04/02 05:41:31;;;;;;;45.38;18.73;;;;;;;;;;6247713;28;20496;-62
2023/04/02 05:44:35;;;;;;;40.88;18.00;;;;;;;;;;6268012;28;20131;-62
2023/04/02 05:47:41;;;;;;;30.65;13.68;;;;;;;;;;6249078;28;20782;-61
2023/04/02 05:50:47;;;;;;;24.73;11.55;;;;;;;;;;6246603;28;20060;-62
2023/04/02 05:53:54;;;;;;;18.70;8.77;;;;;;;;;;6256838;28;20139;-62
2023/04/02 05:57:00;;;;;;;12.45;6.20;;;;;;;;;;6246816;28;20521;-62
2023/04/02 06:00:06;;;;;;;13.95;7.30;;;;;;;;;;6245961;28;20049;-61
2023/04/02 06:03:19;;;;;;;12.63;6.35;;;;;;;;;;6251406;28;20052;-63
2023/04/02 06:06:27;;;;;;;13.50;6.18;;;;;;;;;;6248677;28;20091;-61
2023/04/02 06:09:31;;;;;;;12.50;5.68;;;;;;;;;;6253800;28;20048;-62
2023/04/02 06:13:02;;;;;;;12.35;6.22;;;;;;;;;;6246553;28;20051;-61
2023/04/02 06:16:04;;;;;;;11.27;5.80;;;;;;;;;;6251403;28;20049;-72
2023/04/02 06:19:17;;;;;;;10.48;5.03;;;;;;;;;;6247358;28;20061;-61
2023/04/02 06:22:21;;;;;;;11.80;4.78;;;;;;;;;;6244157;28;20049;-61
2023/04/02 06:25:27;;;;;;;10.65;4.78;;;;;;;;;;6244690;28;20052;-61
2023/04/02 06:29:09;;;;;;;12.13;5.13;;;;;;;;;;6256149;28;20063;-61
2023/04/02 06:32:11;;;;;;;;;;;;;;;;;;6205940;28;20490;-61
2023/04/02 06:35:13;;;;;;;10.75;4.13;;;;;;;;;;6190045;28;19925;-61
2023/04/02 06:38:20;;;;;;;6.03;3.00;;;;;;;;;;6251079;28;20045;-60
2023/04/02 06:41:23;;;;;;;9.18;4.47;;;;;;;;;;6242074;28;20053;-62
2023/04/02 06:44:26;;;;;;;9.15;3.83;;;;;;;;;;6256769;28;21701;-61
2023/04/02 06:47:36;;;;;;;14.77;5.82;;;;;;;;;;6239233;28;20038;-61
2023/04/02 06:50:46;;;;;;;11.43;5.07;;;;;;;;;;6243148;28;20140;-61
2023/04/02 06:53:48;;;;;;;9.15;4.68;;;;;;;;;;6246414;28;20041;-61
2023/04/02 06:56:55;;;;;;;8.43;3.90;;;;;;;;;;6265074;28;20053;-61
2023/04/02 06:59:55;;;;;;;11.20;4.68;;;;;;;;;;6251834;28;20143;-61
2023/04/02 07:02:59;;;;;;;11.20;4.68;;;;;;;;;;6246990;28;20133;-61
2023/04/02 07:06:02;;;;;;;6.60;2.92;;;;;;;;;;6245586;28;20076;-61
2023/04/02 07:09:03;;;;;;;9.00;3.70;;;;;;;;;;6232021;28;20442;-60
2023/04/02 07:12:12;;;;;;;12.93;4.80;;;;;;;;;;6263827;28;20091;-61
2023/04/02 07:15:18;;;;;;;13.23;5.05;;;;;;;;;;6245582;28;20049;-62
2023/04/02 07:18:27;;;;;;;9.70;4.55;;;;;;;;;;6244937;28;20049;-62
2023/04/02 07:21:27;;;;;;;8.13;3.47;;;;;;;;;;6244375;28;20054;-61
2023/04/02 07:24:28;;;;;;;11.35;4.55;;;;;;;;;;6254009;28;20064;-61
2023/04/02 07:27:29;;;;;;;9.52;3.95;;;;;;;;;;6250011;28;20152;-61
2023/04/02 07:30:30;;;;;;;20.20;6.72;;;;;;;;;;6258484;28;20049;-61
2023/04/02 07:33:30;;;;;;;16.30;5.18;;;;;;;;;;6266723;28;20045;-61
2023/04/02 07:36:31;;;;;;;23.02;8.13;;;;;;;;;;6249606;28;20393;-61
2023/04/02 07:39:32;;;;;;;32.30;10.20;;;;;;;;;;6257097;28;20050;-61
2023/04/02 07:42:32;;;;;;;14.73;5.88;;;;;;;;;;6258319;28;20052;-61
2023/04/02 07:45:33;;;;;;;31.48;9.07;;;;;;;;;;6263160;28;20135;-62
2023/04/02 07:48:34;;;;;;;8.63;3.80;;;;;;;;;;6248683;28;20460;-62
2023/04/02 07:51:35;;;;;;;21.27;5.72;;;;;;;;;;6250376;28;20057;-61
2023/04/02 07:54:37;;;;;;;12.30;3.60;;;;;;;;;;6264474;28;20045;-61
2023/04/02 07:57:52;;;;;;;12.25;4.05;;;;;;;;;;6256252;28;20042;-61
2023/04/02 08:00:53;;;;;;;11.18;3.47;;;;;;;;;;6251820;28;20506;-61
2023/04/02 08:03:55;;;;;;;8.75;3.42;;;;;;;;;;6255583;28;20128;-61
2023/04/02 08:06:56;;;;;;;7.68;3.53;;;;;;;;;;6270690;28;20078;-61
2023/04/02 08:09:56;;;;;;;21.02;7.28;;;;;;;;;;6266217;28;20517;-61
2023/04/02 08:12:57;;;;;;;14.98;5.45;;;;;;;;;;6255162;28;20050;-62
2023/04/02 08:15:59;;;;;;;23.15;6.60;;;;;;;;;;6269819;28;20476;-61
2023/04/02 08:19:00;;;;;;;19.17;6.60;;;;;;;;;;6264981;28;20583;-61
2023/04/02 08:22:01;;;;;;;13.18;4.75;;;;;;;;;;6257080;28;20080;-62
2023/04/02 08:25:02;;;;;;;6.88;2.60;;;;;;;;;;6262641;28;20402;-61
2023/04/02 08:28:03;;;;;;;4.22;2.25;;;;;;;;;;6261735;28;20045;-61
2023/04/02 08:31:03;;;;;;;9.88;3.28;;;;;;;;;;6255709;28;20483;-62
2023/04/02 08:34:04;;;;;;;9.63;4.25;;;;;;;;;;6269770;28;20045;-62
2023/04/02 08:37:05;;;;;;;5.15;2.35;;;;;;;;;;6268997;28;20080;-68
2023/04/02 08:40:07;;;;;;;5.20;2.80;;;;;;;;;;6255184;28;20041;-60
2023/04/02 08:43:22;;;;;;;6.55;2.67;;;;;;;;;;6245855;28;20037;-61
2023/04/02 08:46:35;;;;;;;9.10;2.60;;;;;;;;;;6243598;28;20057;-59
2023/04/02 08:49:48;;;;;;;6.05;2.60;;;;;;;;;;6249394;28;20041;-58
2023/04/02 08:52:50;;;;;;;7.18;2.97;;;;;;;;;;6258122;28;20136;-61
2023/04/02 08:56:04;;;;;;;8.45;3.25;;;;;;;;;;6269902;28;20163;-61
2023/04/02 08:59:20;;;;;;;5.50;2.50;;;;;;;;;;6265118;28;20514;-60
2023/04/02 09:02:42;;;;;;;7.00;3.60;;;;;;;;;;6254481;28;20128;-61
2023/04/02 09:05:45;;;;;;;6.23;3.00;;;;;;;;;;6262181;28;20563;-62
2023/04/02 09:08:49;;;;;;;7.22;2.78;;;;;;;;;;6255714;28;20450;-62
2023/04/02 09:12:02;;;;;;;6.47;2.67;;;;;;;;;;6254234;28;20128;-61
2023/04/02 09:15:17;;;;;;;8.75;3.22;;;;;;;;;;6252366;28;20045;-61
2023/04/02 09:18:18;;;;;;;5.22;2.97;;;;;;;;;;6248982;28;20060;-59
2023/04/02 09:21:31;;;;;;;7.72;3.25;;;;;;;;;;6261397;28;20091;-61
2023/04/02 09:24:32;;;;;;;6.00;3.13;;;;;;;;;;6255907;28;20049;-61
2023/04/02 09:27:35;;;;;;;7.90;3.90;;;;;;;;;;6246626;28;20056;-61
2023/04/02 09:31:00;;;;;;;6.38;3.88;;;;;;;;;;6248462;28;20124;-61
2023/04/02 09:34:21;;;;;;;8.82;4.18;;;;;;;;;;6243208;28;20049;-61
2023/04/02 09:37:24;;;;;;;7.75;4.45;;;;;;;;;;6254657;28;20052;-61
2023/04/02 09:40:31;;;;;;;9.02;5.10;;;;;;;;;;6268019;28;20049;-61
2023/04/02 09:43:34;;;;;;;10.00;5.13;;;;;;;;;;6267913;28;20045;-61
2023/04/02 09:46:35;;;;;;;8.05;4.50;;;;;;;;;;6242726;28;20053;-62
2023/04/02 09:49:38;;;;;;;8.30;4.72;;;;;;;;;;6251557;28;20140;-60
2023/04/02 09:52:39;;;;;;;8.75;4.53;;;;;;;;;;6267947;28;20037;-62
2023/04/02 09:55:39;;;;;;;9.45;5.22;;;;;;;;;;6267387;28;20403;-61
2023/04/02 09:58:42;;;;;;;9.57;5.20;;;;;;;;;;6267256;28;20086;-61
2023/04/02 10:02:00;;;;;;;12.18;5.97;;;;;;;;;;6267130;28;20092;-60
2023/04/02 10:05:05;;;;;;;10.13;6.10;;;;;;;;;;6267680;28;20084;-61
2023/04/02 10:08:16;;;;;;;12.75;6.93;;;;;;;;;;6267225;28;20045;-61
2023/04/02 10:11:20;;;;;;;15.52;8.05;;;;;;;;;;6263441;28;20045;-61
2023/04/02 10:14:26;;;;;;;14.57;7.72;;;;;;;;;;6262192;28;20045;-60
2023/04/02 10:17:31;;;;;;;14.45;7.78;;;;;;;;;;6258884;28;20076;-63
2023/04/02 10:20:33;;;;;;;20.10;9.88;;;;;;;;;;6266816;28;20049;-62
2023/04/02 10:23:34;;;;;;;18.65;10.38;;;;;;;;;;6266657;28;20479;-62
2023/04/02 10:26:46;;;;;;;20.15;10.35;;;;;;;;;;6267541;28;20131;-62
2023/04/02 10:30:08;;;;;;;19.08;10.25;;;;;;;;;;6267398;28;20053;-63
2023/04/02 10:33:22;;;;;;;22.60;10.93;;;;;;;;;;6266377;28;20053;-62
2023/04/02 10:36:39;;;;;;;20.75;10.30;;;;;;;;;;6267248;28;20389;-62
2023/04/02 10:39:46;;;;;;;21.52;10.18;;;;;;;;;;6267161;28;20049;-62
2023/04/02 10:43:24;;;;;;;18.67;9.25;;;;;;;;;;6267187;28;20132;-62
2023/04/02 10:46:49;;;;;;;14.05;7.47;;;;;;;;;;6254080;28;20045;-62
2023/04/02 10:50:19;;;;;;;15.57;7.45;;;;;;;;;;6266310;28;20044;-62
2023/04/02 10:53:27;;;;;;;14.15;7.10;;;;;;;;;;6258529;28;20053;-60
2023/04/02 10:56:29;;;;;;;14.48;7.15;;;;;;;;;;6258011;28;20053;-62
2023/04/02 10:59:38;;;;;;;12.93;6.40;;;;;;;;;;6265980;28;20051;-61
2023/04/02 11:03:17;;;;;;;14.20;7.82;;;;;;;;;;6256558;28;20053;-61
2023/04/02 11:06:23;;;;;;;17.08;8.70;;;;;;;;;;6173646;28;20069;-61
2023/04/02 11:09:26;;;;;;;17.20;8.40;;;;;;;;;;6246705;28;20527;-62
2023/04/02 11:12:41;;;;;;;14.45;6.72;;;;;;;;;;6266317;28;20063;-61
2023/04/02 11:15:42;;;;;;;18.42;8.30;;;;;;;;;;6252000;28;20051;-61
2023/04/02 11:19:20;;;;;;;16.90;8.25;;;;;;;;;;6261264;28;20511;-61
2023/04/02 11:22:23;;;;;;;13.00;6.97;;;;;;;;;;6270936;28;20045;-61
2023/04/02 11:25:24;;;;;;;16.33;7.93;;;;;;;;;;6256275;28;20051;-61
2023/04/02 11:28:30;;;;;;;18.33;9.10;;;;;;;;;;6270742;28;20041;-60
2023/04/02 11:31:32;;;;;;;19.02;9.75;;;;;;;;;;6270291;28;20049;-61
2023/04/02 11:34:39;;;;;;;19.38;9.48;;;;;;;;;;6269435;28;20434;-61
2023/04/02 11:37:44;;;;;;;20.60;9.57;;;;;;;;;;6269184;28;20735;-62
2023/04/02 11:40:51;;;;;;;16.85;9.18;;;;;;;;;;6270236;28;20051;-62
2023/04/02 11:43:59;;;;;;;17.25;8.95;;;;;;;;;;6249941;28;20493;-61
2023/04/02 11:47:19;;;;;;;16.30;9.20;;;;;;;;;;6250086;28;20403;-62
2023/04/02 11:50:28;;;;;;;18.08;9.50;;;;;;;;;;6268629;28;20045;-61
2023/04/02 11:53:33;;;;;;;18.73;9.90;;;;;;;;;;6261612;28;20475;-61
2023/04/02 11:56:50;;;;;;;21.58;10.98;;;;;;;;;;6252684;28;20053;-61
2023/04/02 12:00:20;;;;;;;22.63;11.18;;;;;;;;;;6268130;28;20061;-61
2023/04/02 12:03:55;;;;;;;22.63;11.30;;;;;;;;;;6269233;28;20049;-62
2023/04/02 12:07:37;;;;;;;21.70;10.13;;;;;;;;;;6254610;28;20054;-60
2023/04/02 12:10:55;;;;;;;26.00;11.48;;;;;;;;;;6269936;28;20072;-62
2023/04/02 12:13:57;;;;;;;25.00;11.60;;;;;;;;;;6269626;28;20060;-60
2023/04/02 12:16:58;;;;;;;;;;;;;;;;;;6268625;28;20061;-60
2023/04/02 12:20:08;;;;;;;21.48;11.32;;;;;;;;;;6269390;28;20406;-62
2023/04/02 12:23:32;;;;;;;24.08;11.70;;;;;;;;;;6268861;28;20071;-60
2023/04/02 12:26:36;;;;;;;21.70;10.48;;;;;;;;;;6259477;28;20049;-61
2023/04/02 12:29:37;;;;;;;31.05;14.38;;;;;;;;;;6256277;28;20053;-62
2023/04/02 12:32:38;;;;;;;23.23;12.13;;;;;;;;;;6262481;28;20045;-62
2023/04/02 12:35:40;;;;;;;20.88;10.95;;;;;;;;;;6260405;28;20532;-60
2023/04/02 12:38:43;;;;;;;24.08;12.65;;;;;;;;;;6259514;28;20407;-64
2023/04/02 12:41:44;;;;;;;26.05;12.70;;;;;;;;;;6262066;28;20049;-61
2023/04/02 12:44:48;;;;;;;22.73;11.88;;;;;;;;;;6262883;28;20044;-58
2023/04/02 12:47:49;;;;;;;21.65;12.07;;;;;;;;;;6261688;28;20049;-58
2023/04/02 12:50:50;;;;;;;24.15;12.88;;;;;;;;;;6257923;28;20392;-53
2023/04/02 12:53:51;;;;;;;23.08;11.73;;;;;;;;;;6267195;28;20060;-56
2023/04/02 12:56:52;;;;;;;21.70;12.33;;;;;;;;;;6258047;28;20045;-65
2023/04/02 12:59:59;;;;;;;25.55;12.50;;;;;;;;;;6261194;28;20052;-59
2023/04/02 13:03:21;;;;;;;23.63;12.65;;;;;;;;;;6251471;28;20103;-58
2023/04/02 13:06:23;;;;;;;25.23;12.70;;;;;;;;;;6255663;28;20056;-62
2023/04/02 13:09:41;;;;;;;25.30;13.60;;;;;;;;;;6262302;28;20817;-63
2023/04/02 13:12:42;;;;;;;26.05;13.30;;;;;;;;;;6254531;28;20063;-62
2023/04/02 13:15:42;;;;;;;24.73;12.40;;;;;;;;;;6261655;28;20044;-61
2023/04/02 13:18:46;;;;;;;23.27;12.23;;;;;;;;;;6259196;28;20068;-62
2023/04/02 13:21:47;;;;;;;23.23;12.20;;;;;;;;;;6257653;28;20056;-61
2023/04/02 13:24:48;;;;;;;22.80;12.57;;;;;;;;;;6258552;28;20676;-61
2023/04/02 13:27:48;;;;;;;27.98;13.20;;;;;;;;;;6257424;28;20057;-62
2023/04/02 13:30:49;;;;;;;26.38;12.35;;;;;;;;;;6256926;28;20114;-61
2023/04/02 13:33:50;;;;;;;23.05;12.93;;;;;;;;;;6258328;28;20408;-62
2023/04/02 13:36:50;;;;;;;24.17;13.70;;;;;;;;;;6257297;28;20106;-61
2023/04/02 13:39:51;;;;;;;26.75;13.30;;;;;;;;;;6255759;28;20127;-62
2023/04/02 13:42:52;;;;;;;28.05;14.98;;;;;;;;;;6257881;28;20128;-60
2023/04/02 13:45:54;;;;;;;28.35;14.27;;;;;;;;;;6257297;28;21366;-61
2023/04/02 13:48:56;;;;;;;28.83;13.75;;;;;;;;;;6256661;28;20910;-62
2023/04/02 13:52:01;;;;;;;28.90;12.95;;;;;;;;;;6257350;28;20060;-61
2023/04/02 13:55:03;;;;;;;26.38;13.35;;;;;;;;;;6257932;28;20978;-62
2023/04/02 13:58:04;;;;;;;25.42;11.52;;;;;;;;;;6257656;28;20082;-62
2023/04/02 14:01:04;;;;;;;22.83;12.82;;;;;;;;;;6256284;28;20049;-61
2023/04/02 14:04:06;;;;;;;25.17;12.55;;;;;;;;;;6257593;28;20045;-61
2023/04/02 14:07:28;;;;;;;28.17;13.68;;;;;;;;;;6256411;28;20049;-61
2023/04/02 14:10:48;;;;;;;27.43;14.20;;;;;;;;;;6256981;28;20067;-62
2023/04/02 14:13:48;;;;;;;21.30;11.07;;;;;;;;;;6255797;28;20056;-64
2023/04/02 14:17:04;;;;;;;28.50;13.10;;;;;;;;;;6256342;28;20846;-62
2023/04/02 14:20:09;;;;;;;23.95;12.32;;;;;;;;;;6256386;28;20110;-63
2023/04/02 14:23:44;;;;;;;24.45;11.20;;;;;;;;;;6256191;28;20053;-64
2023/04/02 14:26:48;;;;;;;22.42;11.98;;;;;;;;;;6254032;28;20041;-61
2023/04/02 14:29:59;;;;;;;22.98;12.35;;;;;;;;;;6257024;28;20126;-62
2023/04/02 14:33:05;;;;;;;26.58;12.90;;;;;;;;;;6256896;28;20433;-62
2023/04/02 14:36:11;;;;;;;23.63;12.70;;;;;;;;;;6256551;28;20060;-62
2023/04/02 14:39:23;;;;;;;24.27;12.75;;;;;;;;;;6261248;28;20519;-63
2023/04/02 14:42:32;;;;;;;27.83;14.52;;;;;;;;;;6261858;28;20060;-61
2023/04/02 14:45:42;;;;;;;28.92;13.95;;;;;;;;;;6261215;28;20063;-61
2023/04/02 14:48:53;;;;;;;24.45;13.63;;;;;;;;;;6260441;28;20407;-62
2023/04/02 14:52:05;;;;;;;26.80;13.93;;;;;;;;;;6261412;28;20834;-62
2023/04/02 14:55:10;;;;;;;26.73;13.00;;;;;;;;;;6261466;28;20055;-62
2023/04/02 14:58:26;;;;;;;24.48;12.98;;;;;;;;;;6261752;28;20499;-63
2023/04/02 15:01:36;;;;;;;30.50;14.50;;;;;;;;;;6259946;28;20091;-63
2023/04/02 15:04:44;;;;;;;30.50;13.88;;;;;;;;;;6261272;28;20053;-60
2023/04/02 15:07:52;;;;;;;24.95;12.73;;;;;;;;;;6260773;28;20045;-63
2023/04/02 15:10:58;;;;;;;22.30;12.43;;;;;;;;;;6260023;28;20056;-65
2023/04/02 15:14:05;;;;;;;21.65;11.15;;;;;;;;;;6255668;28;20081;-62
2023/04/02 15:17:10;;;;;;;22.80;12.00;;;;;;;;;;6255422;28;20060;-62
2023/04/02 15:20:15;;;;;;;17.52;10.23;;;;;;;;;;6256271;28;20037;-61
2023/04/02 15:23:19;;;;;;;17.65;9.70;;;;;;;;;;6255402;28;20053;-62
2023/04/02 15:26:27;;;;;;;18.98;10.40;;;;;;;;;;6256734;28;20057;-60
2023/04/02 15:29:36;;;;;;;19.90;9.98;;;;;;;;;;6257319;28;20056;-62
2023/04/02 15:32:39;;;;;;;20.67;11.07;;;;;;;;;;6258077;28;20059;-61
2023/04/02 15:35:51;;;;;;;17.80;10.88;;;;;;;;;;6255167;28;20084;-62
2023/04/02 15:39:11;;;;;;;19.65;10.55;;;;;;;;;;6258134;28;20052;-62
2023/04/02 15:42:17;;;;;;;17.48;9.88;;;;;;;;;;6257572;28;20049;-62
2023/04/02 15:45:42;;;;;;;19.58;11.05;;;;;;;;;;6255635;28;20049;-63
2023/04/02 15:49:04;;;;;;;15.32;9.30;;;;;;;;;;6254825;28;20067;-62
2023/04/02 15:52:16;;;;;;;14.13;9.23;;;;;;;;;;6257813;28;20504;-62
2023/04/02 15:55:28;;;;;;;18.45;9.77;;;;;;;;;;6255576;28;20094;-62
2023/04/02 15:58:29;;;;;;;15.65;8.65;;;;;;;;;;6256820;28;20057;-62
2023/04/02 16:01:55;;;;;;;17.42;9.50;;;;;;;;;;6256479;28;21279;-62
2023/04/02 16:05:04;;;;;;;12.98;8.43;;;;;;;;;;6257012;28;20535;-63
2023/04/02 16:08:32;;;;;;;15.20;7.78;;;;;;;;;;6256133;28;20747;-63
2023/04/02 16:11:33;;;;;;;14.07;8.40;;;;;;;;;;6256467;28;20453;-60
2023/04/02 16:14:36;;;;;;;14.35;8.38;;;;;;;;;;6254331;28;21072;-63
2023/04/02 16:17:42;;;;;;;17.10;9.73;;;;;;;;;;6254453;28;20071;-61
2023/04/02 16:20:46;;;;;;;16.27;9.32;;;;;;;;;;6257262;28;20087;-61
2023/04/02 16:23:46;;;;;;;17.73;9.35;;;;;;;;;;6256210;28;20098;-61
2023/04/02 16:27:02;;;;;;;15.38;8.93;;;;;;;;;;6256253;28;20056;-62
2023/04/02 16:30:24;;;;;;;15.23;9.50;;;;;;;;;;6256430;28;20140;-63
2023/04/02 16:33:36;;;;;;;15.10;8.48;;;;;;;;;;6258167;28;20147;-62
2023/04/02 16:36:43;;;;;;;14.13;8.27;;;;;;;;;;6248573;28;20064;-61
2023/04/02 16:39:51;;;;;;;14.60;7.72;;;;;;;;;;6255150;28;20053;-62
2023/04/02 16:43:01;;;;;;;10.93;7.07;;;;;;;;;;6256979;28;20059;-60
2023/04/02 16:46:14;;;;;;;10.85;7.18;;;;;;;;;;6249997;28;20143;-63
2023/04/02 16:50:08;;;;;;;13.32;6.93;;;;;;;;;;6255629;28;20664;-62
2023/04/02 16:53:18;;;;;;;15.18;8.02;;;;;;;;;;6203231;28;20046;-63
2023/04/02 16:56:50;;;;;;;15.93;8.45;;;;;;;;;;6205946;28;20056;-63
2023/04/02 17:00:26;;;;;;;12.57;6.22;;;;;;;;;;6254756;28;20126;-62
2023/04/02 17:03:27;;;;;;;10.27;6.07;;;;;;;;;;6245395;28;20097;-64
2023/04/02 17:06:42;;;;;;;12.43;7.15;;;;;;;;;;6255224;28;20266;-63
2023/04/02 17:09:52;;;;;;;13.77;7.43;;;;;;;;;;6254338;28;20052;-61
2023/04/02 17:13:14;;;;;;;13.55;7.40;;;;;;;;;;6255237;28;20659;-62
2023/04/02 17:16:19;;;;;;;13.97;7.40;;;;;;;;;;6253499;28;20489;-61
2023/04/02 17:19:24;;;;;;;12.18;6.50;;;;;;;;;;6253522;28;20148;-63
2023/04/02 17:22:29;;;;;;;12.52;6.78;;;;;;;;;;6257568;28;20052;-61
2023/04/02 17:25:33;;;;;;;14.75;7.53;;;;;;;;;;6252817;28;20057;-62
2023/04/02 17:28:35;;;;;;;13.75;8.20;;;;;;;;;;6254689;28;20060;-63
2023/04/02 17:31:39;;;;;;;17.73;8.63;;;;;;;;;;6255720;28;20143;-62
2023/04/02 17:34:40;;;;;;;13.45;7.07;;;;;;;;;;6253089;28;20053;-61
2023/04/02 17:37:45;;;;;;;13.10;7.18;;;;;;;;;;6255914;28;20057;-62
2023/04/02 17:41:03;;;;;;;13.48;7.55;;;;;;;;;;6255684;28;20088;-62
2023/04/02 17:44:04;;;;;;;14.20;8.05;;;;;;;;;;6254773;28;20098;-62
2023/04/02 17:47:21;;;;;;;14.15;7.78;;;;;;;;;;6254299;28;20057;-61
2023/04/02 17:50:25;;;;;;;16.05;8.35;;;;;;;;;;6253898;28;20079;-62
2023/04/02 17:53:29;;;;;;;13.77;7.00;;;;;;;;;;6255071;28;20485;-62
2023/04/02 17:56:39;;;;;;;15.27;9.10;;;;;;;;;;6254372;28;20493;-61
2023/04/02 18:00:01;;;;;;;17.25;8.65;;;;;;;;;;6254467;28;20060;-60
2023/04/02 18:03:11;;;;;;;16.87;8.30;;;;;;;;;;6248487;28;20055;-62
2023/04/02 18:06:28;;;;;;;17.15;9.00;;;;;;;;;;6253136;28;20412;-61
2023/04/02 18:09:51;;;;;;;16.45;7.65;;;;;;;;;;6254819;28;20454;-61
2023/04/02 18:13:06;;;;;;;15.00;8.82;;;;;;;;;;6251294;28;20162;-64
2023/04/02 18:16:21;;;;;;;15.30;8.35;;;;;;;;;;6256697;28;21068;-61
2023/04/02 18:19:40;;;;;;;20.00;9.45;;;;;;;;;;6253261;28;20474;-61
2023/04/02 18:23:04;;;;;;;16.23;8.32;;;;;;;;;;6252313;28;20048;-61
2023/04/02 18:26:15;;;;;;;17.10;7.70;;;;;;;;;;6254786;28;20132;-61
2023/04/02 18:29:36;;;;;;;14.65;7.97;;;;;;;;;;6250651;28;20459;-62
2023/04/02 18:32:42;;;;;;;17.60;9.35;;;;;;;;;;6251969;28;21137;-61